createdAt,value
2022-11-15T00:01:48.084Z,8.70
2022-11-15T00:04:37.135Z,8.70
2022-11-15T00:07:53.684Z,8.70
2022-11-15T00:10:33.638Z,8.70
2022-11-15T00:13:20.741Z,8.70
2022-11-15T00:16:07.072Z,8.70
2022-11-15T00:18:54.190Z,8.70
2022-11-15T00:21:46.291Z,8.70
2022-11-15T00:24:33.111Z,8.70
2022-11-15T00:27:19.777Z,8.70
2022-11-15T00:30:06.947Z,8.70
2022-11-15T00:38:40.573Z,8.70
2022-11-15T00:41:27.190Z,8.60
2022-11-15T00:44:13.529Z,8.60
2022-11-15T00:47:17.987Z,8.60
2022-11-15T00:50:05.103Z,8.60
2022-11-15T00:53:14.280Z,8.60
2022-11-15T00:59:12.848Z,8.60
2022-11-15T01:02:02.505Z,8.60
2022-11-15T01:04:50.296Z,8.60
2022-11-15T01:14:38.210Z,8.50
2022-11-15T01:21:12.322Z,8.60
2022-11-15T01:23:59.551Z,8.60
2022-11-15T01:26:51.952Z,8.60
2022-11-15T01:29:46.373Z,8.50
2022-11-15T01:32:33.085Z,8.50
2022-11-15T01:35:21.417Z,8.50
2022-11-15T01:38:08.484Z,8.50
2022-11-15T01:41:14.070Z,8.50
2022-11-15T01:44:35.875Z,8.50
2022-11-15T01:47:29.335Z,8.50
2022-11-15T01:50:49.677Z,8.40
2022-11-15T01:53:38.777Z,8.40
2022-11-15T01:56:29.656Z,8.40
2022-11-15T01:59:22.770Z,8.40
2022-11-15T02:02:31.373Z,8.40
2022-11-15T02:05:37.472Z,8.40
2022-11-15T02:08:47.617Z,8.40
2022-11-15T02:11:48.163Z,8.30
2022-11-15T02:14:35.816Z,8.30
2022-11-15T02:17:46.248Z,8.30
2022-11-15T02:21:29.696Z,8.30
2022-11-15T02:24:37.735Z,8.30
2022-11-15T02:27:58.152Z,8.30
2022-11-15T02:30:53.074Z,8.20
2022-11-15T02:34:48.517Z,8.20
2022-11-15T02:41:45.333Z,8.20
2022-11-15T02:44:46.888Z,8.20
2022-11-15T02:47:58.613Z,8.20
2022-11-15T02:51:11.566Z,8.10
2022-11-15T02:54:26.320Z,8.20
2022-11-15T02:57:18.022Z,8.10
2022-11-15T03:00:12.525Z,8.10
2022-11-15T03:03:45.648Z,8.10
2022-11-15T03:06:58.619Z,8.10
2022-11-15T03:10:22.388Z,8.10
2022-11-15T03:13:32.453Z,8.00
2022-11-15T03:16:41.510Z,8.00
2022-11-15T03:20:12.855Z,8.00
2022-11-15T03:23:17.702Z,8.00
2022-11-15T03:26:08.787Z,7.90
2022-11-15T03:29:00.898Z,8.00
2022-11-15T03:31:53.890Z,8.00
2022-11-15T03:38:15.909Z,7.90
2022-11-15T03:41:17.039Z,8.00
2022-11-15T03:44:45.768Z,7.90
2022-11-15T03:47:50.581Z,7.90
2022-11-15T03:50:52.477Z,7.90
2022-11-15T03:54:22.345Z,7.90
2022-11-15T03:57:29.134Z,7.90
2022-11-15T04:00:34.543Z,7.90
2022-11-15T04:04:02.594Z,7.90
2022-11-15T04:06:48.792Z,7.90
2022-11-15T04:09:57.135Z,7.90
2022-11-15T04:12:47.485Z,7.90
2022-11-15T04:15:53.650Z,7.90
2022-11-15T04:19:06.413Z,7.90
2022-11-15T04:22:11.779Z,7.90
2022-11-15T04:25:33.073Z,7.90
2022-11-15T04:32:16.523Z,7.90
2022-11-15T04:35:03.635Z,7.90
2022-11-15T04:38:10.794Z,7.90
2022-11-15T04:40:57.973Z,7.80
2022-11-15T04:43:49.203Z,7.80
2022-11-15T04:46:35.594Z,7.80
2022-11-15T04:49:28.578Z,7.90
2022-11-15T04:52:19.454Z,7.90
2022-11-15T04:55:08.336Z,7.90
2022-11-15T04:58:02.179Z,7.80
2022-11-15T05:00:48.854Z,7.80
2022-11-15T05:04:15.228Z,7.80
2022-11-15T05:07:19.569Z,7.80
2022-11-15T05:10:53.771Z,7.80
2022-11-15T05:13:40.360Z,7.80
2022-11-15T05:16:26.923Z,7.80
2022-11-15T05:19:13.830Z,7.80
2022-11-15T05:22:00.184Z,7.80
2022-11-15T05:24:46.745Z,7.80
2022-11-15T05:27:47.746Z,7.80
2022-11-15T05:31:42.952Z,7.80
2022-11-15T05:34:46.492Z,7.80
2022-11-15T05:37:33.603Z,7.80
2022-11-15T05:40:19.752Z,7.80
2022-11-15T05:43:08.080Z,7.70
2022-11-15T05:45:54.771Z,7.70
2022-11-15T05:48:45.663Z,7.70
2022-11-15T05:51:43.615Z,7.70
2022-11-15T05:54:44.978Z,7.70
2022-11-15T05:57:31.569Z,7.70
2022-11-15T06:00:43.542Z,7.70
2022-11-15T06:04:14.647Z,7.70
2022-11-15T06:07:31.630Z,7.70
2022-11-15T06:10:52.386Z,7.80
2022-11-15T06:14:19.308Z,7.70
2022-11-15T06:17:11.420Z,7.70
2022-11-15T06:20:50.049Z,7.70
2022-11-15T06:23:39.923Z,7.70
2022-11-15T06:26:56.847Z,7.60
2022-11-15T06:33:12.481Z,7.60
2022-11-15T06:36:37.848Z,7.60
2022-11-15T06:42:50.183Z,7.70
2022-11-15T06:45:39.551Z,7.70
2022-11-15T06:48:54.102Z,7.70
2022-11-15T06:55:03.575Z,7.60
2022-11-15T06:58:09.138Z,7.70
2022-11-15T07:04:45.092Z,7.70
2022-11-15T07:08:12.448Z,7.70
2022-11-15T07:11:12.257Z,7.70
2022-11-15T07:15:02.169Z,7.70
2022-11-15T07:18:06.731Z,7.70
2022-11-15T07:21:39.633Z,7.70
2022-11-15T07:24:43.079Z,7.70
2022-11-15T07:27:58.522Z,7.80
2022-11-15T07:34:47.792Z,7.80
2022-11-15T07:37:34.468Z,7.80
2022-11-15T07:40:47.153Z,7.80
2022-11-15T07:43:54.132Z,7.80
2022-11-15T07:47:00.787Z,7.80
2022-11-15T07:50:14.833Z,7.80
2022-11-15T07:56:24.919Z,7.80
2022-11-15T07:59:32.154Z,7.80
2022-11-15T08:02:35.537Z,7.80
2022-11-15T08:05:43.353Z,7.80
2022-11-15T08:08:41.317Z,7.80
2022-11-15T08:11:46.616Z,7.80
2022-11-15T08:14:44.071Z,7.80
2022-11-15T08:24:17.262Z,7.80
2022-11-15T08:27:22.689Z,7.70
2022-11-15T08:30:11.192Z,7.80
2022-11-15T08:33:28.950Z,7.80
2022-11-15T08:36:29.745Z,7.80
2022-11-15T08:39:36.097Z,7.80
2022-11-15T08:43:15.232Z,7.80
2022-11-15T08:49:11.803Z,7.80
2022-11-15T08:52:13.744Z,7.90
2022-11-15T08:55:24.811Z,7.90
2022-11-15T08:58:37.046Z,7.90
2022-11-15T09:01:39.359Z,7.90
2022-11-15T09:04:51.330Z,7.90
2022-11-15T09:07:59.740Z,7.90
2022-11-15T09:10:57.091Z,7.90
2022-11-15T09:17:54.639Z,7.90
2022-11-15T09:21:05.137Z,7.90
2022-11-15T09:24:16.963Z,7.90
2022-11-15T09:27:12.120Z,7.90
2022-11-15T09:30:09.253Z,7.90
2022-11-15T09:33:19.709Z,7.90
2022-11-15T09:36:20.047Z,7.90
2022-11-15T09:39:32.539Z,7.90
2022-11-15T09:42:39.822Z,7.90
2022-11-15T09:46:45.855Z,7.90
2022-11-15T09:50:01.727Z,8.00
2022-11-15T09:52:41.889Z,8.00
2022-11-15T09:55:44.333Z,8.00
2022-11-15T09:58:53.124Z,8.00
2022-11-15T10:02:12.655Z,7.90
2022-11-15T10:09:58.110Z,8.00
2022-11-15T10:13:04.571Z,8.00
2022-11-15T10:19:41.661Z,8.00
2022-11-15T10:26:15.860Z,7.90
2022-11-15T10:30:41.359Z,7.90
2022-11-15T10:37:15.595Z,8.00
2022-11-15T10:40:31.764Z,8.00
2022-11-15T10:43:11.827Z,8.00
2022-11-15T10:49:48.115Z,8.00
2022-11-15T10:53:16.413Z,7.90
2022-11-15T10:55:49.890Z,7.80
2022-11-15T10:59:10.729Z,7.70
2022-11-15T11:01:52.395Z,7.60
2022-11-15T11:05:04.874Z,7.40
2022-11-15T11:11:15.850Z,7.40
2022-11-15T11:14:42.032Z,7.40
2022-11-15T11:20:53.016Z,7.50
2022-11-15T11:24:01.187Z,7.50
2022-11-15T11:26:39.353Z,7.40
2022-11-15T11:29:52.259Z,7.40
2022-11-15T11:33:07.179Z,7.50
2022-11-15T11:36:00.577Z,7.50
2022-11-15T11:39:20.637Z,7.60
2022-11-15T11:52:40.917Z,7.40
2022-11-15T11:56:50.472Z,7.30
2022-11-15T11:59:38.603Z,7.30
2022-11-15T12:02:28.205Z,7.40
2022-11-15T12:05:19.569Z,7.40
2022-11-15T12:12:06.340Z,7.50
2022-11-15T12:15:25.087Z,7.40
2022-11-15T12:18:14.477Z,7.40
2022-11-15T12:21:07.988Z,7.40
2022-11-15T12:27:43.306Z,7.40
2022-11-15T12:30:21.724Z,7.30
2022-11-15T12:33:03.723Z,7.30
2022-11-15T12:35:39.289Z,7.30
2022-11-15T12:38:12.748Z,7.20
2022-11-15T12:41:15.191Z,7.10
2022-11-15T12:43:45.033Z,7.00
2022-11-15T12:46:31.091Z,6.90
2022-11-15T12:49:02.101Z,6.90
2022-11-15T12:51:48.681Z,6.80
2022-11-15T12:54:23.512Z,6.80
2022-11-15T12:57:09.613Z,6.70
2022-11-15T13:00:00.578Z,6.70
2022-11-15T13:02:41.634Z,6.70
2022-11-15T13:05:33.162Z,6.70
2022-11-15T13:08:01.741Z,6.70
2022-11-15T13:10:34.733Z,6.70
2022-11-15T13:13:09.782Z,6.70
2022-11-15T13:16:02.265Z,6.60
2022-11-15T13:18:38.716Z,6.70
2022-11-15T13:21:42.659Z,6.70
2022-11-15T13:24:18.709Z,6.60
2022-11-15T13:26:47.240Z,6.60
2022-11-15T13:29:20.238Z,6.60
2022-11-15T13:31:49.756Z,6.60
2022-11-15T13:37:24.246Z,6.70
2022-11-15T13:40:33.815Z,6.60
2022-11-15T13:43:25.309Z,6.60
2022-11-15T13:46:21.541Z,6.70
2022-11-15T13:49:07.346Z,6.70
2022-11-15T13:51:44.315Z,6.70
2022-11-15T13:54:43.016Z,6.60
2022-11-15T13:57:11.368Z,6.60
2022-11-15T13:59:55.506Z,6.60
2022-11-15T14:02:32.254Z,6.60
2022-11-15T14:05:19.884Z,6.60
2022-11-15T14:08:00.693Z,6.60
2022-11-15T14:10:32.709Z,6.60
2022-11-15T14:13:02.400Z,6.60
2022-11-15T14:15:37.810Z,6.60
2022-11-15T14:18:09.891Z,6.50
2022-11-15T14:20:40.598Z,6.40
2022-11-15T14:23:44.970Z,6.40
2022-11-15T14:26:32.783Z,6.30
2022-11-15T14:29:31.469Z,6.30
2022-11-15T14:32:21.117Z,6.30
2022-11-15T14:34:54.767Z,6.30
2022-11-15T14:37:36.066Z,6.20
2022-11-15T14:40:07.235Z,6.20
2022-11-15T14:42:35.976Z,6.10
2022-11-15T14:45:04.477Z,6.10
2022-11-15T14:47:32.520Z,6.20
2022-11-15T14:50:00.790Z,6.20
2022-11-15T14:52:36.532Z,6.20
2022-11-15T14:55:34.235Z,6.30
2022-11-15T14:58:04.379Z,6.30
2022-11-15T15:00:35.244Z,6.30
2022-11-15T15:03:04.134Z,6.40
2022-11-15T15:05:37.524Z,6.40
2022-11-15T15:08:07.388Z,6.30
2022-11-15T15:10:42.614Z,6.30
2022-11-15T15:13:24.303Z,6.30
2022-11-15T15:15:53.801Z,6.30
2022-11-15T15:18:22.015Z,6.30
2022-11-15T15:21:03.470Z,6.40
2022-11-15T15:23:34.236Z,6.40
2022-11-15T15:26:02.495Z,6.40
2022-11-15T15:28:34.607Z,6.40
2022-11-15T15:31:06.355Z,6.40
2022-11-15T15:33:34.214Z,6.40
2022-11-15T15:36:03.593Z,6.40
2022-11-15T15:38:34.126Z,6.40
2022-11-15T15:41:04.142Z,6.40
2022-11-15T15:43:34.138Z,6.40
2022-11-15T15:46:04.566Z,6.50
2022-11-15T15:48:34.973Z,6.50
2022-11-15T15:51:09.130Z,6.50
2022-11-15T15:53:43.962Z,6.50
2022-11-15T15:56:16.152Z,6.60
2022-11-15T15:58:44.664Z,6.60
2022-11-15T16:01:14.554Z,6.60
2022-11-15T16:03:42.803Z,6.60
2022-11-15T16:06:42.551Z,6.70
2022-11-15T16:09:18.537Z,6.70
2022-11-15T16:11:48.328Z,6.70
2022-11-15T16:14:18.608Z,6.70
2022-11-15T16:16:50.661Z,6.70
2022-11-15T16:19:19.328Z,6.70
2022-11-15T16:21:51.207Z,6.70
2022-11-15T16:24:20.481Z,6.70
2022-11-15T16:26:50.838Z,6.70
2022-11-15T16:29:18.697Z,6.70
2022-11-15T16:31:49.317Z,6.70
2022-11-15T16:34:19.337Z,6.70
2022-11-15T16:36:47.758Z,6.70
2022-11-15T16:39:18.243Z,6.70
2022-11-15T16:41:47.904Z,6.70
2022-11-15T16:44:15.807Z,6.60
2022-11-15T16:46:48.006Z,6.60
2022-11-15T16:49:18.610Z,6.60
2022-11-15T16:51:51.496Z,6.60
2022-11-15T16:54:20.169Z,6.50
2022-11-15T16:56:52.139Z,6.50
2022-11-15T16:59:21.266Z,6.50
2022-11-15T17:01:52.820Z,6.50
2022-11-15T17:04:22.880Z,6.60
2022-11-15T17:06:51.387Z,6.50
2022-11-15T17:09:24.716Z,6.60
2022-11-15T17:11:53.952Z,6.60
2022-11-15T17:14:22.310Z,6.60
2022-11-15T17:16:54.533Z,6.60
2022-11-15T17:19:23.158Z,6.60
2022-11-15T17:21:51.926Z,6.60
2022-11-15T17:24:21.442Z,6.50
2022-11-15T17:26:50.428Z,6.60
2022-11-15T17:29:18.813Z,6.60
2022-11-15T17:31:47.574Z,6.60
2022-11-15T17:34:16.023Z,6.60
2022-11-15T17:36:44.248Z,6.50
2022-11-15T17:39:12.242Z,6.60
2022-11-15T17:41:42.675Z,6.60
2022-11-15T17:44:11.450Z,6.60
2022-11-15T17:46:41.101Z,6.60
2022-11-15T17:49:09.472Z,6.70
2022-11-15T17:51:37.756Z,6.70
2022-11-15T17:54:06.434Z,6.70
2022-11-15T17:56:40.640Z,6.70
2022-11-15T17:59:15.912Z,6.80
2022-11-15T18:01:47.281Z,6.70
2022-11-15T18:04:15.800Z,6.70
2022-11-15T18:06:44.713Z,6.70
2022-11-15T18:09:15.910Z,6.60
2022-11-15T18:11:46.762Z,6.60
2022-11-15T18:14:18.675Z,6.60
2022-11-15T18:16:52.515Z,6.60
2022-11-15T18:19:20.834Z,6.60
2022-11-15T18:22:04.517Z,6.50
2022-11-15T18:24:39.724Z,6.50
2022-11-15T18:27:08.874Z,6.50
2022-11-15T18:29:38.234Z,6.50
2022-11-15T18:32:12.759Z,6.40
2022-11-15T18:34:41.206Z,6.40
2022-11-15T18:37:10.107Z,6.40
2022-11-15T18:39:38.153Z,6.30
2022-11-15T18:42:06.431Z,6.30
2022-11-15T18:44:34.797Z,6.30
2022-11-15T18:47:03.905Z,6.20
2022-11-15T18:49:32.236Z,6.20
2022-11-15T18:52:01.167Z,6.30
2022-11-15T18:54:31.403Z,6.20
2022-11-15T18:57:00.879Z,6.20
2022-11-15T18:59:29.975Z,6.20
2022-11-15T19:01:58.429Z,6.20
2022-11-15T19:04:26.415Z,6.20
2022-11-15T19:06:54.816Z,6.20
2022-11-15T19:09:27.416Z,6.20
2022-11-15T19:11:56.856Z,6.30
2022-11-15T19:14:27.968Z,6.20
2022-11-15T19:16:57.196Z,6.20
2022-11-15T19:19:28.485Z,6.20
2022-11-15T19:22:03.722Z,6.20
2022-11-15T19:24:33.128Z,6.20
2022-11-15T19:27:02.624Z,6.20
2022-11-15T19:29:30.793Z,6.20
2022-11-15T19:32:02.630Z,6.20
2022-11-15T19:34:31.580Z,6.20
2022-11-15T19:37:00.505Z,6.20
2022-11-15T19:39:28.409Z,6.20
2022-11-15T19:41:56.574Z,6.20
2022-11-15T19:44:26.531Z,6.20
2022-11-15T19:46:54.952Z,6.20
2022-11-15T19:49:23.786Z,6.20
2022-11-15T19:51:53.372Z,6.20
2022-11-15T19:54:21.429Z,6.30
2022-11-15T19:56:49.974Z,6.20
2022-11-15T19:59:18.041Z,6.30
2022-11-15T20:01:46.311Z,6.30
2022-11-15T20:04:14.171Z,6.30
2022-11-15T20:06:45.273Z,6.30
2022-11-15T20:09:14.808Z,6.40
2022-11-15T20:11:45.834Z,6.30
2022-11-15T20:14:17.751Z,6.40
2022-11-15T20:16:53.952Z,6.40
2022-11-15T20:19:27.468Z,6.40
2022-11-15T20:21:56.928Z,6.40
2022-11-15T20:24:25.454Z,6.40
2022-11-15T20:26:54.081Z,6.40
2022-11-15T20:29:23.572Z,6.30
2022-11-15T20:31:53.961Z,6.30
2022-11-15T20:34:22.749Z,6.30
2022-11-15T20:36:54.006Z,6.30
2022-11-15T20:39:25.370Z,6.30
2022-11-15T20:41:54.149Z,6.30
2022-11-15T20:44:22.593Z,6.30
2022-11-15T20:46:51.138Z,6.30
2022-11-15T20:49:19.700Z,6.30
2022-11-15T20:51:48.093Z,6.30
2022-11-15T20:54:16.489Z,6.30
2022-11-15T20:56:46.356Z,6.30
2022-11-15T20:59:14.154Z,6.30
2022-11-15T21:01:44.594Z,6.30
2022-11-15T21:04:12.578Z,6.30
2022-11-15T21:06:44.605Z,6.30
2022-11-15T21:09:35.049Z,6.30
2022-11-15T21:12:16.291Z,6.40
2022-11-15T21:14:49.227Z,6.40
2022-11-15T21:17:17.758Z,6.50
2022-11-15T21:19:47.049Z,6.50
2022-11-15T21:22:18.749Z,6.50
2022-11-15T21:24:50.873Z,6.50
2022-11-15T21:27:19.756Z,6.50
2022-11-15T21:29:50.522Z,6.50
2022-11-15T21:32:20.495Z,6.50
2022-11-15T21:34:49.646Z,6.60
2022-11-15T21:37:20.737Z,6.60
2022-11-15T21:39:55.936Z,6.60
2022-11-15T21:42:24.846Z,6.60
2022-11-15T21:44:53.254Z,6.60
2022-11-15T21:47:22.316Z,6.60
2022-11-15T21:49:50.064Z,6.60
2022-11-15T21:52:18.800Z,6.70
2022-11-15T21:54:50.344Z,6.60
2022-11-15T21:57:22.736Z,6.60
2022-11-15T22:00:13.351Z,6.60
2022-11-15T22:02:48.892Z,6.60
2022-11-15T22:08:28.164Z,6.60
2022-11-15T22:10:57.664Z,6.60
2022-11-15T22:13:28.488Z,6.60
2022-11-15T22:15:57.793Z,6.60
2022-11-15T22:18:31.282Z,6.60
2022-11-15T22:21:02.698Z,6.50
2022-11-15T22:23:38.655Z,6.50
2022-11-15T22:26:08.959Z,6.50
2022-11-15T22:28:37.589Z,6.50
2022-11-15T22:31:05.947Z,6.50
2022-11-15T22:33:35.606Z,6.50
2022-11-15T22:36:05.648Z,6.50
2022-11-15T22:38:34.988Z,6.50
2022-11-15T22:41:04.031Z,6.60
2022-11-15T22:43:34.845Z,6.60
2022-11-15T22:46:04.646Z,6.60
2022-11-15T22:48:36.319Z,6.70
2022-11-15T22:51:05.353Z,6.70
2022-11-15T22:53:33.889Z,6.70
2022-11-15T22:56:06.390Z,6.70
2022-11-15T22:58:35.567Z,6.70
2022-11-15T23:01:06.030Z,6.70
2022-11-15T23:03:35.084Z,6.80
2022-11-15T23:06:07.994Z,6.80
2022-11-15T23:08:37.421Z,6.80
2022-11-15T23:11:24.845Z,6.80
2022-11-15T23:13:54.161Z,6.70
2022-11-15T23:16:24.130Z,6.70
2022-11-15T23:18:58.027Z,6.80
2022-11-15T23:21:47.932Z,6.80
2022-11-15T23:24:18.401Z,6.80
2022-11-15T23:26:49.703Z,6.80
2022-11-15T23:29:21.336Z,6.80
2022-11-15T23:32:08.707Z,6.90
2022-11-15T23:34:45.897Z,6.90
2022-11-15T23:37:18.537Z,6.90
2022-11-15T23:39:48.544Z,6.90
2022-11-15T23:42:20.338Z,6.90
2022-11-15T23:44:51.101Z,6.90
2022-11-15T23:47:20.372Z,6.90
2022-11-15T23:49:49.880Z,6.90
2022-11-15T23:52:18.446Z,6.90
2022-11-15T23:54:50.357Z,7.00
2022-11-15T23:57:18.331Z,7.00
2022-11-15T23:59:49.073Z,7.00
